Time;durP1;ratioP1;P1;durP2;ratioP2;P2;SDS_P1;SDS_P2;PMS_P1;PMS_P2;Temp;Humidity;BMP_temperature;BMP_pressure;BME280_temperature;BME280_humidity;BME280_pressure;Samples;Min_cycle;Max_cycle;Signal;HPM_P1;HPM_P2
2021/09/23 08:58:41;;;;;;;22.92;16.40;;;;;;;;;;6111406;22;20373;-51
2021/09/23 09:01:09;;;;;;;22.05;16.17;;;;;;;;;;6181214;23;20362;-49
2021/09/23 09:03:37;;;;;;;20.08;15.57;;;;;;;;;;6154410;23;20358;-49
2021/09/23 09:06:13;;;;;;;21.35;15.73;;;;;;;;;;6181085;23;20349;-57
2021/09/23 09:08:40;;;;;;;20.70;15.77;;;;;;;;;;6181343;23;20377;-50
2021/09/23 09:11:07;;;;;;;21.65;15.90;;;;;;;;;;6180369;23;20348;-47
2021/09/23 09:13:34;;;;;;;19.85;14.98;;;;;;;;;;6180243;23;20389;-46
2021/09/23 09:16:06;;;;;;;21.67;15.75;;;;;;;;;;6180991;23;20445;-45
2021/09/23 09:18:32;;;;;;;18.80;14.77;;;;;;;;;;6180327;23;20412;-44
2021/09/23 09:20:59;;;;;;;19.42;14.73;;;;;;;;;;6154653;23;20437;-46
2021/09/23 09:23:27;;;;;;;19.48;15.05;;;;;;;;;;6179318;23;20876;-46
2021/09/23 09:25:53;;;;;;;19.33;15.02;;;;;;;;;;6180928;23;20341;-44
2021/09/23 09:28:20;;;;;;;20.40;14.68;;;;;;;;;;6181319;23;20392;-44
2021/09/23 09:30:53;;;;;;;19.63;14.68;;;;;;;;;;6180810;23;20356;-44
2021/09/23 09:33:19;;;;;;;19.75;14.48;;;;;;;;;;6181203;23;20400;-45
2021/09/23 09:35:45;;;;;;;19.02;14.00;;;;;;;;;;6180984;23;20334;-44
2021/09/23 09:38:11;;;;;;;19.95;14.07;;;;;;;;;;6180716;23;20337;-43
2021/09/23 09:40:38;;;;;;;18.17;13.82;;;;;;;;;;6154329;23;20421;-44
2021/09/23 09:43:06;;;;;;;18.65;13.82;;;;;;;;;;6181038;23;20352;-44
2021/09/23 09:45:33;;;;;;;18.37;13.10;;;;;;;;;;6180454;23;20342;-44
2021/09/23 09:47:59;;;;;;;16.83;12.93;;;;;;;;;;6181277;23;20334;-45
2021/09/23 09:50:25;;;;;;;16.85;12.80;;;;;;;;;;6180942;23;20382;-44
2021/09/23 09:52:59;;;;;;;17.35;12.80;;;;;;;;;;6180858;23;20349;-44
2021/09/23 09:55:27;;;;;;;16.50;13.07;;;;;;;;;;6154777;23;20388;-45
2021/09/23 09:57:53;;;;;;;16.67;12.40;;;;;;;;;;6182006;23;20421;-44
2021/09/23 10:00:20;;;;;;;16.17;11.82;;;;;;;;;;6156339;23;20377;-43
2021/09/23 10:02:46;;;;;;;15.43;12.17;;;;;;;;;;6182437;23;20449;-44
2021/09/23 10:05:13;;;;;;;15.57;11.65;;;;;;;;;;6182615;23;20346;-42
2021/09/23 10:07:40;;;;;;;16.23;11.82;;;;;;;;;;6155994;23;20361;-43
2021/09/23 10:10:07;;;;;;;14.73;11.38;;;;;;;;;;6183086;23;20334;-44
2021/09/23 10:12:33;;;;;;;16.27;11.95;;;;;;;;;;6154965;23;20361;-43
2021/09/23 10:15:01;;;;;;;15.18;11.50;;;;;;;;;;6182349;23;20381;-44
2021/09/23 10:17:30;;;;;;;15.93;12.15;;;;;;;;;;6182518;23;20356;-44
2021/09/23 10:20:00;;;;;;;14.73;11.10;;;;;;;;;;6181699;23;20346;-44
2021/09/23 10:22:26;;;;;;;15.65;11.70;;;;;;;;;;6182712;23;20771;-44
2021/09/23 10:24:54;;;;;;;14.27;11.23;;;;;;;;;;6157186;23;20448;-45
2021/09/23 10:30:07;;;;;;;13.05;10.18;;;;;;;;;;6182695;23;20735;-43
2021/09/23 10:32:33;;;;;;;14.65;10.52;;;;;;;;;;6182506;23;20448;-45
2021/09/23 10:35:00;;;;;;;13.40;10.13;;;;;;;;;;6182423;23;20384;-45
2021/09/23 10:37:26;;;;;;;13.77;10.52;;;;;;;;;;6182429;23;20802;-45
2021/09/23 10:39:52;;;;;;;14.17;10.50;;;;;;;;;;6182555;23;20346;-44
2021/09/23 10:42:21;;;;;;;13.57;10.27;;;;;;;;;;6182113;23;20357;-43
2021/09/23 10:44:52;;;;;;;12.32;9.48;;;;;;;;;;6182471;23;20341;-43
2021/09/23 10:47:29;;;;;;;12.52;9.80;;;;;;;;;;6155279;23;20354;-43
2021/09/23 10:49:57;;;;;;;13.30;10.30;;;;;;;;;;6182453;23;20341;-44
2021/09/23 10:52:25;;;;;;;13.10;10.07;;;;;;;;;;6182727;23;20341;-43
2021/09/23 10:54:52;;;;;;;12.68;9.85;;;;;;;;;;6182437;23;20395;-44
2021/09/23 10:57:18;;;;;;;11.93;9.43;;;;;;;;;;6155880;23;20357;-45
2021/09/23 10:59:46;;;;;;;11.93;9.90;;;;;;;;;;6155156;23;20404;-43
2021/09/23 11:02:25;;;;;;;13.80;9.67;;;;;;;;;;6182164;23;20433;-43
2021/09/23 11:04:56;;;;;;;12.50;9.35;;;;;;;;;;6182338;23;20609;-43
2021/09/23 20:21:09;;;;;;;2.00;1.58;;;;;;;;;;6208446;23;20391;-52
2021/09/23 20:23:35;;;;;;;2.50;1.80;;;;;;;;;;6209470;23;20422;-49
2021/09/23 20:26:01;;;;;;;3.27;1.57;;;;;;;;;;6206474;23;20456;-46
2021/09/23 20:28:27;;;;;;;3.22;1.77;;;;;;;;;;6210599;23;20339;-47
2021/09/23 20:30:53;;;;;;;3.28;1.80;;;;;;;;;;6209438;23;20367;-46
2021/09/23 20:33:20;;;;;;;3.40;1.90;;;;;;;;;;6210570;23;20435;-46
2021/09/23 20:35:47;;;;;;;3.60;1.58;;;;;;;;;;6210676;23;20772;-47
2021/09/23 20:38:13;;;;;;;2.20;1.60;;;;;;;;;;6210659;23;20344;-48
2021/09/23 20:40:39;;;;;;;2.88;1.52;;;;;;;;;;6209970;23;20343;-48
2021/09/23 20:43:05;;;;;;;2.63;1.67;;;;;;;;;;6210196;23;20417;-45
2021/09/23 20:45:31;;;;;;;2.83;1.63;;;;;;;;;;6207904;23;20812;-46
2021/09/23 20:47:59;;;;;;;2.30;1.70;;;;;;;;;;6209656;23;20332;-47
2021/09/23 20:50:26;;;;;;;4.00;1.70;;;;;;;;;;6209680;23;20622;-46
2021/09/23 20:52:52;;;;;;;2.93;1.67;;;;;;;;;;6209919;23;20343;-46
